This is the latest recevied weather packets stored in our database for station/object KD8OZS. If no packets are shown the sender has not sent any weather packets the latest 10 day(s).
| Time | Temp. | Humidity | Pressure | Rain* | Wind** | Luminosity | Snow |
|---|---|---|---|---|---|---|---|
| 1787415323 | 25.56° C | 82% | 1005.5 hPa | 0 mm | - | 217 W/m² | - |
| 1787415019 | 26.11° C | 79% | 1005.4 hPa | 0 mm | - | 230 W/m² | - |
| 1787414715 | 26.67° C | 78% | 1005.4 hPa | 0 mm | - | 296 W/m² | - |
| 1787414414 | 27.22° C | 79% | 1005.5 hPa | 0 mm | - | 318 W/m² | - |
| 1787414113 | 27.22° C | 78% | 1005.4 hPa | 0 mm | - | 301 W/m² | - |
| 1787413807 | 26.67° C | 79% | 1005.5 hPa | 0 mm | - | 293 W/m² | - |
| 1787413503 | 26.67° C | 81% | 1005.7 hPa | 0 mm | - | 258 W/m² | - |
| 1787413197 | 26.11° C | 80% | 1005.5 hPa | 0 mm | - | 272 W/m² | - |
| 1787412894 | 26.11° C | 80% | 1005.5 hPa | 0 mm | - | 333 W/m² | - |
| 1787412588 | 26.11° C | 80% | 1005.5 hPa | 0 mm | - | 283 W/m² | - |
| 1787412283 | 26.11° C | 81% | 1005.7 hPa | 0 mm | - | 240 W/m² | - |
| 1787411979 | 25.56° C | 81% | 1005.6 hPa | 0 mm | - | 231 W/m² | - |
| 1787411677 | 25.56° C | 82% | 1005.8 hPa | 0 mm | - | 170 W/m² | - |
| 1787411371 | 26.11° C | 81% | 1005.7 hPa | 0 mm | - | 211 W/m² | - |
| 1787411067 | 25.56° C | 82% | 1006 hPa | 0 mm | - | 199 W/m² | - |
| 1787410762 | 25.56° C | 80% | 1005.8 hPa | 0 mm | - | 245 W/m² | - |
| 1787410458 | 25.56° C | 82% | 1005.7 hPa | 0 mm | - | 280 W/m² | - |
| 1787410153 | 25.56° C | 82% | 1005.9 hPa | 0 mm | - | 147 W/m² | - |
| 1787409850 | 25° C | 83% | 1005.9 hPa | 0 mm | - | 218 W/m² | - |
| 1787409545 | 25.56° C | 81% | 1006 hPa | 0 mm | - | 377 W/m² | - |
| 1787409241 | 25° C | 82% | 1005.9 hPa | 0 mm | - | 475 W/m² | - |
| 1787408936 | 25° C | 82% | 1006.1 hPa | 0 mm | - | 465 W/m² | - |
| 1787408632 | 24.44° C | 84% | 1006.2 hPa | 0 mm | - | 172 W/m² | - |
| 1787408327 | 24.44° C | 83% | 1006.2 hPa | 0 mm | - | 173 W/m² | - |
| 1787408023 | 24.44° C | 83% | 1006.4 hPa | 0 mm | - | 266 W/m² | - |
* Rain latest hour (hover to see other rain measurements)
** Current wind speed in m/s (hover to see current wind gust speed)